createdAt,value
2022-10-07T00:00:57.545Z,1.6
2022-10-07T00:02:06.551Z,1.6
2022-10-07T00:03:16.496Z,1.5
2022-10-07T00:04:25.517Z,1.8
2022-10-07T00:05:34.583Z,1.8
2022-10-07T00:06:44.560Z,1.4
2022-10-07T00:07:52.579Z,1.7
2022-10-07T00:09:02.618Z,1.6
2022-10-07T00:10:11.585Z,1.2
2022-10-07T00:11:19.598Z,1.9
2022-10-07T00:12:29.608Z,1.6
2022-10-07T00:13:38.584Z,1.5
2022-10-07T00:14:47.589Z,1.6
2022-10-07T00:15:57.579Z,1.7
2022-10-07T00:17:05.637Z,1.7
2022-10-07T00:18:16.535Z,1.8
2022-10-07T00:19:25.561Z,1.4
2022-10-07T00:20:34.555Z,1.4
2022-10-07T00:21:44.584Z,1.5
2022-10-07T00:22:52.570Z,1.6
2022-10-07T00:24:02.598Z,1.7
2022-10-07T00:25:12.663Z,2.1
2022-10-07T00:26:21.683Z,1.8
2022-10-07T00:27:31.669Z,1.8
2022-10-07T00:28:40.726Z,1.6
2022-10-07T00:29:49.641Z,1.4
2022-10-07T00:30:59.706Z,1.7
2022-10-07T00:32:07.625Z,1.9
2022-10-07T00:33:16.606Z,1.7
2022-10-07T00:34:26.585Z,1.7
2022-10-07T00:35:35.343Z,1.7
2022-10-07T00:36:45.242Z,2
2022-10-07T00:37:53.968Z,1.8
2022-10-07T00:39:03.669Z,2.2
2022-10-07T00:40:13.348Z,2.2
2022-10-07T00:41:22.018Z,1.7
2022-10-07T00:42:31.781Z,1.6
2022-10-07T00:43:41.501Z,1.9
2022-10-07T00:44:51.216Z,1.7
2022-10-07T00:46:01.930Z,1.6
2022-10-07T00:47:10.595Z,1.6
2022-10-07T00:48:20.535Z,1.8
2022-10-07T00:49:30.198Z,1.7
2022-10-07T00:50:37.879Z,1.3
2022-10-07T00:51:47.553Z,1.4
2022-10-07T00:52:56.239Z,1.8
2022-10-07T00:54:04.939Z,1.7
2022-10-07T00:55:13.608Z,1.3
2022-10-07T00:56:21.277Z,1.3
2022-10-07T00:57:29.963Z,1.2
2022-10-07T00:58:38.655Z,1.3
2022-10-07T00:59:47.452Z,1.2
2022-10-07T01:00:57.226Z,1.5
2022-10-07T01:02:06.826Z,1.3
2022-10-07T01:03:15.509Z,1.7
2022-10-07T01:04:25.249Z,1.4
2022-10-07T01:05:34.061Z,1.5
2022-10-07T01:06:42.738Z,1.2
2022-10-07T01:07:54.915Z,1.2
2022-10-07T01:09:02.111Z,1.2
2022-10-07T01:10:12.783Z,1.2
2022-10-07T01:11:21.489Z,1.5
2022-10-07T01:12:30.172Z,1.1
2022-10-07T01:13:39.845Z,1.4
2022-10-07T01:14:47.514Z,1
2022-10-07T01:15:57.215Z,1.4
2022-10-07T01:17:07.028Z,1.4
2022-10-07T01:18:16.584Z,1.3
2022-10-07T01:19:26.248Z,1.3
2022-10-07T01:20:35.945Z,1.1
2022-10-07T01:21:44.634Z,1.1
2022-10-07T01:22:54.319Z,1
2022-10-07T01:24:02.002Z,1.3
2022-10-07T01:25:10.709Z,1
2022-10-07T01:26:20.413Z,1.3
2022-10-07T01:27:29.137Z,0.9
2022-10-07T01:28:38.906Z,1.3
2022-10-07T01:29:48.606Z,1
2022-10-07T01:30:56.279Z,1
2022-10-07T01:32:05.934Z,1.1
2022-10-07T01:33:14.673Z,1.2
2022-10-07T01:34:23.421Z,1.2
2022-10-07T01:35:33.097Z,1.1
2022-10-07T01:36:41.790Z,1.3
2022-10-07T01:37:51.459Z,1.1
2022-10-07T01:39:00.141Z,1.1
2022-10-07T01:40:08.855Z,1.2
2022-10-07T01:41:18.597Z,1.4
2022-10-07T01:42:26.269Z,1.1
2022-10-07T01:43:34.939Z,1.2
2022-10-07T01:44:44.650Z,1.2
2022-10-07T01:45:53.393Z,1.2
2022-10-07T01:47:03.049Z,1
2022-10-07T01:48:12.722Z,1.4
2022-10-07T01:49:20.401Z,1.3
2022-10-07T01:50:30.091Z,1.2
2022-10-07T01:51:37.888Z,1.3
2022-10-07T01:52:46.636Z,2.1
2022-10-07T01:53:56.301Z,1.8
2022-10-07T01:55:04.979Z,1.8
2022-10-07T01:56:14.629Z,2.4
2022-10-07T01:57:24.313Z,2.3
2022-10-07T01:58:32.003Z,2.4
2022-10-07T01:59:41.734Z,2.5
2022-10-07T02:00:50.417Z,2.4
2022-10-07T02:01:59.174Z,2
2022-10-07T02:03:08.950Z,1.8
2022-10-07T02:04:17.618Z,1.5
2022-10-07T02:05:27.371Z,1.7
2022-10-07T02:06:36.029Z,1.6
2022-10-07T02:07:43.937Z,1.5
2022-10-07T02:08:53.545Z,1.4
2022-10-07T02:10:01.208Z,1.6
2022-10-07T02:11:09.912Z,1.8
2022-10-07T02:12:19.621Z,1.4
2022-10-07T02:13:28.310Z,1.1
2022-10-07T02:14:38.217Z,1.5
2022-10-07T02:15:47.977Z,1.5
2022-10-07T02:16:56.604Z,1.7
2022-10-07T02:18:06.377Z,1.5
2022-10-07T02:19:14.011Z,1.5
2022-10-07T02:20:23.798Z,1.5
2022-10-07T02:21:33.468Z,1.5
2022-10-07T02:22:41.174Z,1.5
2022-10-07T02:23:50.907Z,1.5
2022-10-07T02:25:00.654Z,1.6
2022-10-07T02:26:09.351Z,1.7
2022-10-07T02:27:19.073Z,1.4
2022-10-07T02:28:27.803Z,1.3
2022-10-07T02:29:36.450Z,1.6
2022-10-07T02:30:46.161Z,1.6
2022-10-07T02:31:53.891Z,1.5
2022-10-07T02:33:03.584Z,1.6
2022-10-07T02:34:15.192Z,1.4
2022-10-07T02:35:20.935Z,1.3
2022-10-07T02:36:30.633Z,1.7
2022-10-07T02:37:39.331Z,1.3
2022-10-07T02:38:48.020Z,1.2
2022-10-07T02:39:56.707Z,1.2
2022-10-07T02:41:05.793Z,1.8
2022-10-07T02:42:15.460Z,1.7
2022-10-07T02:43:24.174Z,1.7
2022-10-07T02:44:33.840Z,1.7
2022-10-07T02:45:43.542Z,1.4
2022-10-07T02:46:51.242Z,1.6
2022-10-07T02:48:01.898Z,1.5
2022-10-07T02:49:09.613Z,1.9
2022-10-07T02:50:19.309Z,1.8
2022-10-07T02:51:28.965Z,1.6
2022-10-07T02:52:36.658Z,1.6
2022-10-07T02:53:46.344Z,1.3
2022-10-07T02:54:55.328Z,1.4
2022-10-07T02:56:04.015Z,1.5
2022-10-07T02:57:13.730Z,1.3
2022-10-07T02:58:22.381Z,1.5
2022-10-07T02:59:31.093Z,1.3
2022-10-07T03:00:39.803Z,1.3
2022-10-07T03:01:48.495Z,1.3
2022-10-07T03:02:58.168Z,1.5
2022-10-07T03:04:06.871Z,1.2
2022-10-07T03:05:14.519Z,1.4
2022-10-07T03:06:24.359Z,1.1
2022-10-07T03:07:32.049Z,1.5
2022-10-07T03:08:41.750Z,1.3
2022-10-07T03:09:51.453Z,1.1
2022-10-07T03:11:01.167Z,1.4
2022-10-07T03:12:10.980Z,1.2
2022-10-07T03:13:19.685Z,1.2
2022-10-07T03:14:28.344Z,1
2022-10-07T03:15:41.988Z,1
2022-10-07T03:16:47.692Z,1.3
2022-10-07T03:17:56.386Z,1.6
2022-10-07T03:19:06.053Z,1.1
2022-10-07T03:20:15.751Z,1.3
2022-10-07T03:21:25.492Z,1.3
2022-10-07T03:22:34.179Z,1.4
2022-10-07T03:23:42.905Z,1.3
2022-10-07T03:24:52.584Z,1.2
2022-10-07T03:26:01.288Z,1.5
2022-10-07T03:27:10.983Z,1.5
2022-10-07T03:28:20.735Z,1.2
2022-10-07T03:29:29.445Z,1.8
2022-10-07T03:30:39.105Z,1.7
2022-10-07T03:31:48.843Z,1.9
2022-10-07T03:32:58.555Z,1.8
2022-10-07T03:34:08.309Z,1.8
2022-10-07T03:35:16.278Z,1.9
2022-10-07T03:36:24.946Z,1.8
2022-10-07T03:37:34.766Z,1.6
2022-10-07T03:38:42.497Z,1.8
2022-10-07T03:39:52.191Z,1.3
2022-10-07T03:41:01.889Z,1.4
2022-10-07T03:42:09.584Z,1.1
2022-10-07T03:43:19.273Z,1.3
2022-10-07T03:44:26.959Z,1.1
2022-10-07T03:45:35.692Z,1.2
2022-10-07T03:46:45.389Z,1.4
2022-10-07T03:47:53.035Z,1.5
2022-10-07T03:49:02.868Z,1.6
2022-10-07T03:50:10.579Z,2
2022-10-07T03:51:19.382Z,1.7
2022-10-07T03:52:29.094Z,1.6
2022-10-07T03:53:37.794Z,1.7
2022-10-07T03:54:45.521Z,2
2022-10-07T03:55:55.203Z,1.7
2022-10-07T03:57:03.046Z,1.8
2022-10-07T03:58:12.786Z,1.7
2022-10-07T03:59:22.500Z,1.5
2022-10-07T04:00:30.170Z,1.4
2022-10-07T04:01:39.990Z,1.5
2022-10-07T04:02:49.336Z,1.5
2022-10-07T04:03:57.999Z,2.1
2022-10-07T04:05:07.698Z,2
2022-10-07T04:06:17.404Z,1.5
2022-10-07T04:07:27.087Z,1.4
2022-10-07T04:08:36.757Z,1.7
2022-10-07T04:09:44.580Z,2.3
2022-10-07T04:10:54.261Z,1.4
2022-10-07T04:12:02.968Z,0.9
2022-10-07T04:13:13.341Z,1.2
2022-10-07T04:14:23.060Z,1.2
2022-10-07T04:15:32.770Z,1.6
2022-10-07T04:16:42.611Z,1.8
2022-10-07T04:17:51.417Z,1.8
2022-10-07T04:19:00.105Z,1.7
2022-10-07T04:20:10.191Z,1.5
2022-10-07T04:21:17.970Z,1.6
2022-10-07T04:22:27.670Z,1.4
2022-10-07T04:23:37.518Z,1.3
2022-10-07T04:24:46.890Z,1.4
2022-10-07T04:25:56.640Z,1.4
2022-10-07T04:27:05.356Z,1.8
2022-10-07T04:28:14.087Z,1.1
2022-10-07T04:29:22.753Z,1
2022-10-07T04:30:32.449Z,1
2022-10-07T04:31:41.381Z,1.3
2022-10-07T04:32:51.069Z,1.5
2022-10-07T04:33:58.813Z,2.1
2022-10-07T04:35:08.481Z,1.9
2022-10-07T04:36:17.494Z,1.2
2022-10-07T04:37:25.194Z,1.3
2022-10-07T04:38:35.336Z,1.3
2022-10-07T04:39:59.969Z,1.2
2022-10-07T04:40:54.668Z,1.2
2022-10-07T04:42:03.384Z,1.2
2022-10-07T04:43:13.327Z,0.9
2022-10-07T04:44:23.499Z,1.3
2022-10-07T04:45:31.417Z,1
2022-10-07T04:46:41.269Z,1.2
2022-10-07T04:47:49.870Z,1.3
2022-10-07T04:48:57.632Z,1.6
2022-10-07T04:50:07.354Z,1.8
2022-10-07T04:51:15.064Z,1.4
2022-10-07T04:52:23.749Z,1.2
2022-10-07T04:53:33.433Z,1.4
2022-10-07T04:54:41.252Z,1.7
2022-10-07T04:55:50.997Z,1.5
2022-10-07T04:56:59.709Z,1.6
2022-10-07T04:58:08.370Z,1.5
2022-10-07T04:59:20.343Z,1.7
2022-10-07T05:00:27.816Z,1.6
2022-10-07T05:01:37.870Z,1.6
2022-10-07T05:02:47.502Z,1.7
2022-10-07T05:03:56.217Z,1.8
2022-10-07T05:05:05.936Z,1.7
2022-10-07T05:06:15.607Z,1.5
2022-10-07T05:07:24.305Z,2.1
2022-10-07T05:08:34.002Z,1.4
2022-10-07T05:09:42.673Z,1.6
2022-10-07T05:10:51.336Z,1.7
2022-10-07T05:12:01.129Z,1.7
2022-10-07T05:13:10.847Z,1.4
2022-10-07T05:14:20.524Z,1.4
2022-10-07T05:15:30.274Z,1.4
2022-10-07T05:16:38.992Z,2.1
2022-10-07T05:17:48.677Z,1.5
2022-10-07T05:18:58.381Z,1.7
2022-10-07T05:20:07.098Z,1.8
2022-10-07T05:21:16.818Z,1.6
2022-10-07T05:22:24.529Z,1.5
2022-10-07T05:23:34.228Z,2.3
2022-10-07T05:24:43.918Z,2
2022-10-07T05:25:52.611Z,1.9
2022-10-07T05:27:01.311Z,1.5
2022-10-07T05:28:09.108Z,1.3
2022-10-07T05:29:18.801Z,1.8
2022-10-07T05:30:28.533Z,2.1
2022-10-07T05:31:37.331Z,1.8
2022-10-07T05:32:46.909Z,1.9
2022-10-07T05:33:55.574Z,1.8
2022-10-07T05:35:03.258Z,2
2022-10-07T05:36:12.944Z,1.6
2022-10-07T05:37:20.648Z,2
2022-10-07T05:38:29.316Z,1.8
2022-10-07T05:39:37.987Z,1.6
2022-10-07T05:40:45.676Z,2
2022-10-07T05:41:55.440Z,1.8
2022-10-07T05:43:04.124Z,1.7
2022-10-07T05:44:12.801Z,1.9
2022-10-07T05:45:22.528Z,1.5
2022-10-07T05:46:30.211Z,1.6
2022-10-07T05:47:38.948Z,1.9
2022-10-07T05:48:48.611Z,1.7
2022-10-07T05:49:58.344Z,1.5
2022-10-07T05:51:08.006Z,1.6
2022-10-07T05:52:16.688Z,1.7
2022-10-07T05:53:25.549Z,1.8
2022-10-07T05:54:35.218Z,3.5
2022-10-07T05:55:44.875Z,2.7
2022-10-07T05:56:53.546Z,2
2022-10-07T05:58:03.208Z,2.3
2022-10-07T05:59:10.883Z,1.3
2022-10-07T06:00:20.554Z,1.2
2022-10-07T06:01:30.226Z,1.3
2022-10-07T06:02:39.019Z,1.8
2022-10-07T06:03:48.583Z,1.7
2022-10-07T06:04:57.305Z,1.9
2022-10-07T06:06:06.980Z,1.7
2022-10-07T06:07:20.432Z,2.1
2022-10-07T06:08:26.341Z,2
2022-10-07T06:09:36.050Z,1.9
2022-10-07T06:10:45.718Z,1.8
2022-10-07T06:11:55.439Z,1.6
2022-10-07T06:13:05.131Z,1.9
2022-10-07T06:14:12.818Z,2.3
2022-10-07T06:15:22.572Z,2
2022-10-07T06:16:32.536Z,2
2022-10-07T06:17:41.095Z,2.6
2022-10-07T06:18:50.790Z,1.8
2022-10-07T06:19:59.525Z,1.9
2022-10-07T06:21:09.220Z,2.5
2022-10-07T06:22:17.918Z,2
2022-10-07T06:23:26.594Z,1.7
2022-10-07T06:24:34.258Z,2
2022-10-07T06:25:43.954Z,1.9
2022-10-07T06:26:52.681Z,1.6
2022-10-07T06:28:01.445Z,1.5
2022-10-07T06:29:10.037Z,2.4
2022-10-07T06:30:18.736Z,2.1
2022-10-07T06:31:28.453Z,2.2
2022-10-07T06:32:37.276Z,2.5
2022-10-07T06:33:47.149Z,2.4
2022-10-07T06:34:57.119Z,1.8
2022-10-07T06:36:07.004Z,2
2022-10-07T06:37:16.872Z,2.4
2022-10-07T06:38:25.718Z,2.2
2022-10-07T06:39:35.688Z,2.2
2022-10-07T06:40:44.345Z,2.8
2022-10-07T06:41:52.085Z,2.4
2022-10-07T06:43:01.760Z,1.8
2022-10-07T06:44:09.428Z,1.7
2022-10-07T06:45:18.186Z,1.5
2022-10-07T06:46:26.958Z,1.7
2022-10-07T06:47:34.564Z,1.8
2022-10-07T06:48:44.239Z,1.7
2022-10-07T06:49:52.915Z,2
2022-10-07T06:51:01.671Z,1.9
2022-10-07T06:52:11.350Z,1.4
2022-10-07T06:53:20.045Z,1.8
2022-10-07T06:54:28.703Z,1.5
2022-10-07T06:55:38.484Z,1.9
2022-10-07T06:56:47.232Z,1.3
2022-10-07T06:57:55.956Z,2.3
2022-10-07T06:59:04.690Z,2.2
2022-10-07T07:00:12.354Z,1.7
2022-10-07T07:01:22.089Z,1.8
2022-10-07T07:02:30.786Z,1.5
2022-10-07T07:03:39.438Z,1.3
2022-10-07T07:04:50.446Z,1.6
2022-10-07T07:05:58.781Z,1.2
2022-10-07T07:07:08.460Z,1.1
2022-10-07T07:08:18.345Z,1.2
2022-10-07T07:09:28.021Z,1.3
2022-10-07T07:10:37.692Z,1.3
2022-10-07T07:11:46.493Z,2
2022-10-07T07:12:55.481Z,1.5
2022-10-07T07:14:06.268Z,1.2
2022-10-07T07:15:16.117Z,1.4
2022-10-07T07:16:25.866Z,2
2022-10-07T07:17:35.762Z,1.6
2022-10-07T07:18:44.550Z,1.2
2022-10-07T07:19:54.435Z,1.1
2022-10-07T07:21:02.627Z,1.3
2022-10-07T07:22:11.501Z,1.4
2022-10-07T07:23:21.451Z,1.7
2022-10-07T07:24:30.418Z,1.3
2022-10-07T07:25:40.193Z,1.4
2022-10-07T07:26:49.020Z,1.3
2022-10-07T07:27:58.765Z,1.6
2022-10-07T07:29:07.759Z,1.6
2022-10-07T07:30:16.201Z,1.8
2022-10-07T07:31:25.821Z,1.5
2022-10-07T07:32:35.549Z,2
2022-10-07T07:33:43.237Z,2
2022-10-07T07:36:01.596Z,1.8
2022-10-07T07:37:09.322Z,1.2
2022-10-07T07:38:22.085Z,2
2022-10-07T07:39:28.652Z,1.1
2022-10-07T07:40:37.386Z,1.2
2022-10-07T07:41:47.050Z,1.7
2022-10-07T07:42:55.838Z,2
2022-10-07T07:44:05.524Z,1.4
2022-10-07T07:45:15.216Z,1.7
2022-10-07T07:46:23.952Z,1.8
2022-10-07T07:47:33.606Z,1.3
2022-10-07T07:48:42.327Z,1.5
2022-10-07T07:49:51.022Z,1.5
2022-10-07T07:51:00.700Z,1.3
2022-10-07T07:52:09.602Z,1.5
2022-10-07T07:53:19.344Z,1.7
2022-10-07T07:54:28.064Z,1.5
2022-10-07T07:55:35.726Z,1.5
2022-10-07T07:56:45.420Z,1.3
2022-10-07T07:57:55.205Z,1
2022-10-07T07:59:03.892Z,1.7
2022-10-07T08:00:13.590Z,1.1
2022-10-07T08:01:22.368Z,1
2022-10-07T08:02:33.082Z,1.2
2022-10-07T08:03:41.696Z,1.3
2022-10-07T08:04:49.421Z,1.5
2022-10-07T08:05:59.138Z,1.8
2022-10-07T08:07:06.819Z,1.6
2022-10-07T08:08:16.497Z,1.7
2022-10-07T08:09:26.168Z,1.9
2022-10-07T08:10:34.927Z,1.8
2022-10-07T08:11:44.713Z,1.2
2022-10-07T08:12:54.456Z,1.6
2022-10-07T08:14:03.127Z,1
2022-10-07T08:15:12.793Z,1.5
2022-10-07T08:16:21.515Z,1
2022-10-07T08:17:30.228Z,1.7
2022-10-07T08:18:39.963Z,2
2022-10-07T08:19:48.650Z,2
2022-10-07T08:20:58.354Z,1.7
2022-10-07T08:22:08.077Z,1.5
2022-10-07T08:23:18.801Z,1.3
2022-10-07T08:24:27.458Z,1.1
2022-10-07T08:25:35.165Z,1.2
2022-10-07T08:26:43.829Z,1.6
2022-10-07T08:27:53.547Z,1.4
2022-10-07T08:29:02.259Z,1.5
2022-10-07T08:30:12.032Z,1.3
2022-10-07T08:31:20.721Z,1.4
2022-10-07T08:32:29.309Z,1
2022-10-07T08:33:38.996Z,1.4
2022-10-07T08:34:48.992Z,1.3
2022-10-07T08:35:57.929Z,1.3
2022-10-07T08:37:07.631Z,1.3
2022-10-07T08:38:17.280Z,1.5
2022-10-07T08:39:26.950Z,1.3
2022-10-07T08:40:34.656Z,1.6
2022-10-07T08:41:44.360Z,1.3
2022-10-07T08:42:53.037Z,1.8
2022-10-07T08:44:03.367Z,1.4
2022-10-07T08:45:12.423Z,1.5
2022-10-07T08:46:20.194Z,1.5
2022-10-07T08:47:28.834Z,1.3
2022-10-07T08:48:38.559Z,1.6
2022-10-07T08:49:47.277Z,1.5
2022-10-07T08:50:57.058Z,1.5
2022-10-07T08:52:06.814Z,1.5
2022-10-07T08:53:15.574Z,1.5
2022-10-07T08:54:26.252Z,1.6
2022-10-07T08:55:33.916Z,1.7
2022-10-07T08:56:43.586Z,1.8
2022-10-07T08:57:53.362Z,1.6
2022-10-07T08:59:01.046Z,2
2022-10-07T09:00:11.204Z,1.4
2022-10-07T09:01:20.986Z,1.5
2022-10-07T09:02:29.849Z,1.7
2022-10-07T09:03:39.564Z,1.4
2022-10-07T09:04:47.254Z,1.1
2022-10-07T09:05:55.964Z,1.4
2022-10-07T09:07:04.674Z,1.2
2022-10-07T09:08:13.329Z,1.5
2022-10-07T09:09:23.079Z,2
2022-10-07T09:10:31.790Z,2.1
2022-10-07T09:11:40.462Z,2.3
2022-10-07T09:12:50.140Z,1.8
2022-10-07T09:13:58.826Z,1.6
2022-10-07T09:15:06.684Z,1.3
2022-10-07T09:16:16.443Z,1.4
2022-10-07T09:17:24.068Z,1.3
2022-10-07T09:18:33.805Z,1.8
2022-10-07T09:19:42.477Z,1.3
2022-10-07T09:20:52.557Z,1.3
2022-10-07T09:22:02.328Z,1.5
2022-10-07T09:23:13.022Z,1.4
2022-10-07T09:24:21.712Z,0.9
2022-10-07T09:25:31.417Z,1.2
2022-10-07T09:26:40.174Z,1.3
2022-10-07T09:27:49.892Z,1.5
2022-10-07T09:28:58.686Z,1.3
2022-10-07T09:30:06.458Z,1.5
2022-10-07T09:31:16.263Z,1.7
2022-10-07T09:32:23.865Z,1.4
2022-10-07T09:33:32.578Z,1.8
2022-10-07T09:34:42.313Z,1.7
2022-10-07T09:35:56.487Z,1.9
2022-10-07T09:37:01.702Z,1.9
2022-10-07T09:38:10.435Z,1.9
2022-10-07T09:39:19.149Z,1.7
2022-10-07T09:40:28.840Z,2.2
2022-10-07T09:41:38.549Z,1.8
2022-10-07T09:42:47.245Z,1.3
2022-10-07T09:43:56.962Z,1.5
2022-10-07T09:45:04.745Z,1.3
2022-10-07T09:46:14.435Z,1.7
2022-10-07T09:47:23.164Z,1.1
2022-10-07T09:48:31.828Z,1.1
2022-10-07T09:49:41.601Z,1.4
2022-10-07T09:50:49.314Z,1.5
2022-10-07T09:51:58.019Z,0.9
2022-10-07T09:53:06.828Z,1.2
2022-10-07T09:54:14.534Z,1.2
2022-10-07T09:55:23.295Z,1.3
2022-10-07T09:56:31.947Z,1.2
2022-10-07T09:57:39.624Z,1.3
2022-10-07T09:58:49.354Z,1.4
2022-10-07T09:59:58.075Z,1.3
2022-10-07T10:01:06.871Z,1.3
2022-10-07T10:02:16.647Z,1.1
2022-10-07T10:03:26.384Z,1.5
2022-10-07T10:04:35.985Z,1.2
2022-10-07T10:05:45.705Z,1.1
2022-10-07T10:06:55.456Z,1.4
2022-10-07T10:08:05.171Z,2
2022-10-07T10:09:16.902Z,1.2
2022-10-07T10:10:24.514Z,1.3
2022-10-07T10:11:34.259Z,1.8
2022-10-07T10:12:44.190Z,1.5
2022-10-07T10:13:53.628Z,0.9
2022-10-07T10:15:03.404Z,1.6
2022-10-07T10:16:12.169Z,1.3
2022-10-07T10:17:22.807Z,1.4
2022-10-07T10:18:30.643Z,1.6
2022-10-07T10:19:39.354Z,1.1
2022-10-07T10:20:49.065Z,1.4
2022-10-07T10:21:57.757Z,1.5
2022-10-07T10:23:07.493Z,1.5
2022-10-07T10:24:16.291Z,1.1
2022-10-07T10:25:24.955Z,1.5
2022-10-07T10:26:34.604Z,1
2022-10-07T10:27:43.417Z,1.5
2022-10-07T10:28:53.060Z,1.4
2022-10-07T10:30:02.769Z,1.4
2022-10-07T10:31:12.479Z,1.2
2022-10-07T10:32:22.104Z,1.4
2022-10-07T10:33:31.811Z,1.1
2022-10-07T10:34:40.492Z,1.4
2022-10-07T10:35:49.225Z,1.9
2022-10-07T10:36:55.941Z,1.3
2022-10-07T10:38:05.631Z,1.4
2022-10-07T10:39:15.313Z,1.5
2022-10-07T10:40:24.000Z,1.3
2022-10-07T10:41:33.769Z,1.7
2022-10-07T10:42:42.491Z,1.4
2022-10-07T10:43:52.238Z,1
2022-10-07T10:45:01.829Z,1.4
2022-10-07T10:46:09.542Z,1.6
2022-10-07T10:47:19.225Z,1.4
2022-10-07T10:48:26.912Z,1.1
2022-10-07T10:49:35.612Z,1.2
2022-10-07T10:50:45.316Z,1.5
2022-10-07T10:51:54.042Z,1.3
2022-10-07T10:53:03.785Z,1.2
2022-10-07T10:54:12.571Z,1.5
2022-10-07T10:55:20.298Z,1
2022-10-07T10:56:29.979Z,1
2022-10-07T10:57:38.666Z,1
2022-10-07T10:58:47.411Z,1.5
2022-10-07T10:59:57.419Z,0.9
2022-10-07T11:01:05.018Z,0.9
2022-10-07T11:02:14.774Z,1.3
2022-10-07T11:03:24.443Z,0.7
2022-10-07T11:04:33.116Z,0.9
2022-10-07T11:05:41.852Z,1.3
2022-10-07T11:06:49.520Z,1.1
2022-10-07T11:08:00.540Z,0.7
2022-10-07T11:09:07.962Z,1.5
2022-10-07T11:10:16.706Z,1.1
2022-10-07T11:11:26.412Z,1.1
2022-10-07T11:12:35.139Z,1.2
2022-10-07T11:13:44.832Z,1.4
2022-10-07T11:14:57.535Z,1.1
2022-10-07T11:16:04.302Z,1.4
2022-10-07T11:17:13.909Z,1.4
2022-10-07T11:18:23.600Z,1.1
2022-10-07T11:19:31.267Z,1.1
2022-10-07T11:20:44.475Z,1.1
2022-10-07T11:21:48.746Z,1.1
2022-10-07T11:22:56.457Z,1.4
2022-10-07T11:24:06.171Z,0.9
2022-10-07T11:25:15.849Z,0.8
2022-10-07T11:26:25.528Z,0.7
2022-10-07T11:27:35.432Z,1.1
2022-10-07T11:28:44.176Z,1.3
2022-10-07T11:29:53.793Z,1
2022-10-07T11:31:03.555Z,0.8
2022-10-07T11:32:13.236Z,1
2022-10-07T11:33:22.924Z,0.8
2022-10-07T11:34:31.716Z,1
2022-10-07T11:35:40.458Z,0.7
2022-10-07T11:36:50.134Z,0.9
2022-10-07T11:37:58.831Z,0.9
2022-10-07T11:39:08.536Z,1
2022-10-07T11:40:16.273Z,1.1
2022-10-07T11:41:25.884Z,0.6
2022-10-07T11:42:35.573Z,1.1
2022-10-07T11:43:44.269Z,0.9
2022-10-07T11:44:53.968Z,1
2022-10-07T11:46:06.811Z,0.9
2022-10-07T11:47:12.625Z,1.2
2022-10-07T11:48:22.583Z,0.9
2022-10-07T11:49:31.531Z,0.7
2022-10-07T11:50:39.647Z,1
2022-10-07T11:51:49.548Z,1
2022-10-07T11:52:57.840Z,0.9
2022-10-07T11:54:06.992Z,0.9
2022-10-07T11:55:16.002Z,0.8
2022-10-07T11:56:25.311Z,0.7
2022-10-07T11:57:35.139Z,0.9
2022-10-07T11:58:44.172Z,0.6
2022-10-07T11:59:51.963Z,0.7
2022-10-07T12:01:02.072Z,0.7
2022-10-07T12:02:14.718Z,0.7
2022-10-07T12:03:21.145Z,0.7
2022-10-07T12:04:31.103Z,0.7
2022-10-07T12:05:38.866Z,1
2022-10-07T12:06:48.789Z,0.6
2022-10-07T12:07:57.729Z,0.8
2022-10-07T12:09:06.468Z,0.6
2022-10-07T12:10:16.291Z,0.8
2022-10-07T12:11:24.141Z,1
2022-10-07T12:12:32.875Z,0.9
2022-10-07T12:13:42.824Z,1
2022-10-07T12:14:50.517Z,1
2022-10-07T12:16:00.363Z,0.9
2022-10-07T12:17:09.266Z,0.9
2022-10-07T12:18:19.226Z,1.1
2022-10-07T12:19:28.961Z,1
2022-10-07T12:20:37.681Z,1
2022-10-07T12:21:46.445Z,1.2
2022-10-07T12:22:56.127Z,1
2022-10-07T12:24:03.983Z,1
2022-10-07T12:25:13.954Z,1.1
2022-10-07T12:26:22.935Z,1.4
2022-10-07T12:27:30.687Z,0.9
2022-10-07T12:28:40.651Z,1
2022-10-07T12:29:49.318Z,1.1
2022-10-07T12:30:59.255Z,1.1
2022-10-07T12:32:09.095Z,0.8
2022-10-07T12:33:17.741Z,0.9
2022-10-07T12:34:27.579Z,0.8
2022-10-07T12:35:36.252Z,0.9
2022-10-07T12:36:46.247Z,0.9
2022-10-07T12:37:54.813Z,0.7
2022-10-07T12:39:03.511Z,0.8
2022-10-07T12:40:13.496Z,1
2022-10-07T12:41:21.585Z,1.1
2022-10-07T12:42:31.312Z,0.9
2022-10-07T12:43:41.077Z,0.9
2022-10-07T12:44:48.832Z,0.8
2022-10-07T12:45:58.778Z,0.8
2022-10-07T12:47:08.317Z,1
2022-10-07T12:48:16.059Z,0.9
2022-10-07T12:49:24.749Z,0.8
2022-10-07T12:50:33.513Z,0.7
2022-10-07T12:51:42.266Z,1
2022-10-07T12:52:52.257Z,1.1
2022-10-07T12:53:59.967Z,0.7
2022-10-07T12:55:09.664Z,0.7
2022-10-07T12:56:18.373Z,0.8
2022-10-07T12:57:27.064Z,0.7
2022-10-07T12:58:36.763Z,0.8
2022-10-07T12:59:44.514Z,1.1
2022-10-07T13:00:53.295Z,0.9
2022-10-07T13:02:02.956Z,0.9
2022-10-07T13:03:10.577Z,0.7
2022-10-07T13:04:20.322Z,1.2
2022-10-07T13:05:30.053Z,1.3
2022-10-07T13:06:38.728Z,0.9
2022-10-07T13:07:47.403Z,1.4
2022-10-07T13:08:55.106Z,0.9
2022-10-07T13:10:03.780Z,1.2
2022-10-07T13:11:13.547Z,0.8
2022-10-07T13:12:21.246Z,0.8
2022-10-07T13:13:30.074Z,1
2022-10-07T13:14:39.817Z,0.9
2022-10-07T13:15:48.618Z,0.8
2022-10-07T13:16:58.363Z,0.9
2022-10-07T13:18:10.596Z,1.2
2022-10-07T13:19:18.522Z,1.1
2022-10-07T13:20:28.445Z,1
2022-10-07T13:21:36.204Z,1
2022-10-07T13:22:46.351Z,0.8
2022-10-07T13:23:54.705Z,0.6
2022-10-07T13:25:02.455Z,1.2
2022-10-07T13:26:12.169Z,1.7
2022-10-07T13:27:19.875Z,1
2022-10-07T13:28:28.773Z,1.1
2022-10-07T13:29:38.435Z,0.7
2022-10-07T13:30:45.179Z,1
2022-10-07T13:31:55.163Z,1.1
2022-10-07T13:33:04.739Z,1
2022-10-07T13:34:12.447Z,1.1
2022-10-07T13:35:22.169Z,0.8
2022-10-07T13:36:30.875Z,0.7
2022-10-07T13:37:40.676Z,1.1
2022-10-07T13:38:50.434Z,0.9
2022-10-07T13:39:58.138Z,1.3
2022-10-07T13:41:08.055Z,0.9
2022-10-07T13:42:20.542Z,1.1
2022-10-07T13:43:25.593Z,0.9
2022-10-07T13:44:35.315Z,1
2022-10-07T13:45:43.070Z,1.1
2022-10-07T13:46:52.732Z,1.1
2022-10-07T13:48:02.487Z,1
2022-10-07T13:49:10.204Z,1.4
2022-10-07T13:50:19.906Z,0.8
2022-10-07T13:51:28.918Z,1
2022-10-07T13:52:37.235Z,0.6
2022-10-07T13:53:47.278Z,0.9
2022-10-07T13:54:55.968Z,1.2
2022-10-07T13:56:04.730Z,0.9
2022-10-07T13:57:17.868Z,0.9
2022-10-07T13:58:23.186Z,0.8
2022-10-07T13:59:32.960Z,1.1
2022-10-07T14:00:41.719Z,1.2
2022-10-07T14:01:50.543Z,1.4
2022-10-07T14:03:00.336Z,1.4
2022-10-07T14:04:07.986Z,1.2
2022-10-07T14:05:16.724Z,1.8
2022-10-07T14:06:26.431Z,1.1
2022-10-07T14:07:34.117Z,1.2
2022-10-07T14:08:43.855Z,0.7
2022-10-07T14:09:52.593Z,0.9
2022-10-07T14:11:01.343Z,0.7
2022-10-07T14:12:12.001Z,0.8
2022-10-07T14:13:20.731Z,0.7
2022-10-07T14:14:30.443Z,1.2
2022-10-07T14:15:40.125Z,0.6
2022-10-07T14:16:48.846Z,0.7
2022-10-07T14:17:58.548Z,0.8
2022-10-07T14:19:08.259Z,0.9
2022-10-07T14:20:16.078Z,0.8
2022-10-07T14:21:25.872Z,1
2022-10-07T14:22:34.564Z,0.8
2022-10-07T14:23:44.266Z,1
2022-10-07T14:24:54.029Z,0.7
2022-10-07T14:26:03.768Z,0.7
2022-10-07T14:27:13.492Z,0.7
2022-10-07T14:28:22.337Z,1
2022-10-07T14:29:30.000Z,0.8
2022-10-07T14:30:39.752Z,0.9
2022-10-07T14:31:48.503Z,1.3
2022-10-07T14:32:58.178Z,0.8
2022-10-07T14:34:05.899Z,0.8
2022-10-07T14:35:14.608Z,0.7
2022-10-07T14:36:24.412Z,0.9
2022-10-07T14:37:34.098Z,1.1
2022-10-07T14:38:43.848Z,1.5
2022-10-07T14:39:52.532Z,1
2022-10-07T14:41:00.198Z,0.8
2022-10-07T14:42:09.966Z,0.9
2022-10-07T14:43:17.729Z,1.2
2022-10-07T14:44:26.588Z,0.8
2022-10-07T14:45:36.330Z,0.9
2022-10-07T14:46:44.019Z,1.6
2022-10-07T14:47:53.740Z,1.5
2022-10-07T14:49:02.532Z,0.9
2022-10-07T14:50:10.223Z,0.9
2022-10-07T14:51:19.873Z,1.1
2022-10-07T14:52:29.596Z,0.8
2022-10-07T14:53:38.322Z,1.2
2022-10-07T14:54:48.045Z,1.1
2022-10-07T14:55:55.732Z,1.1
2022-10-07T14:57:05.415Z,1.3
2022-10-07T14:58:15.140Z,1
2022-10-07T14:59:22.808Z,1.1
2022-10-07T15:00:33.808Z,1.2
2022-10-07T15:01:40.289Z,0.8
2022-10-07T15:02:49.101Z,1.6
2022-10-07T15:03:58.807Z,1.1
2022-10-07T15:05:07.356Z,1.2
2022-10-07T15:06:17.107Z,0.9
2022-10-07T15:07:25.798Z,1.5
2022-10-07T15:08:34.477Z,1.3
2022-10-07T15:09:44.168Z,1.1
2022-10-07T15:10:52.839Z,0.9
2022-10-07T15:12:02.548Z,1.3
2022-10-07T15:13:13.337Z,1.1
2022-10-07T15:14:22.869Z,0.8
2022-10-07T15:15:32.590Z,1
2022-10-07T15:16:41.319Z,1.5
2022-10-07T15:17:49.992Z,1.2
2022-10-07T15:18:58.692Z,1.2
2022-10-07T15:20:06.362Z,0.8
2022-10-07T15:21:15.033Z,1.5
2022-10-07T15:22:24.805Z,1.3
2022-10-07T15:23:33.558Z,1.2
2022-10-07T15:24:43.269Z,1.4
2022-10-07T15:25:52.957Z,1.3
2022-10-07T15:27:00.626Z,1.3
2022-10-07T15:28:10.370Z,1.2
2022-10-07T15:29:20.067Z,1.5
2022-10-07T15:30:28.809Z,1.1
2022-10-07T15:31:38.467Z,1.5
2022-10-07T15:32:46.398Z,1.4
2022-10-07T15:33:55.888Z,1.6
2022-10-07T15:35:04.623Z,1.1
2022-10-07T15:36:13.353Z,1.1
2022-10-07T15:37:23.045Z,1
2022-10-07T15:38:31.746Z,1.4
2022-10-07T15:39:40.477Z,1.4
2022-10-07T15:40:50.208Z,1.3
2022-10-07T15:41:57.873Z,1.6
2022-10-07T15:43:07.575Z,1.4
2022-10-07T15:44:16.343Z,1.8
2022-10-07T15:45:24.977Z,1.1
2022-10-07T15:46:34.754Z,1.5
2022-10-07T15:47:43.399Z,1.2
2022-10-07T15:48:52.080Z,1.2
2022-10-07T15:50:01.784Z,1.2
2022-10-07T15:51:09.459Z,1.3
2022-10-07T15:52:19.193Z,1.5
2022-10-07T15:53:27.932Z,1.2
2022-10-07T15:54:35.641Z,1.1
2022-10-07T15:55:45.343Z,1.4
2022-10-07T15:56:53.088Z,1.5
2022-10-07T15:58:01.861Z,1.1
2022-10-07T15:59:11.712Z,1.4